sensor_id;sensor_type;location;lat;lon;timestamp;P1;P2;P0
69349;PMS5003;64554;43.452;4.934;2023-08-01T00:00:42;6.60;6.60;4.00
69349;PMS5003;64554;43.452;4.934;2023-08-01T00:03:09;11.00;11.00;4.00
69349;PMS5003;64554;43.452;4.934;2023-08-01T00:05:36;6.50;6.50;3.50
69349;PMS5003;64554;43.452;4.934;2023-08-01T00:08:05;11.00;8.40;6.00
69349;PMS5003;64554;43.452;4.934;2023-08-01T00:10:31;6.00;6.00;4.00
69349;PMS5003;64554;43.452;4.934;2023-08-01T00:12:58;7.60;7.00;3.60
69349;PMS5003;64554;43.452;4.934;2023-08-01T00:15:24;6.60;6.60;3.40
69349;PMS5003;64554;43.452;4.934;2023-08-01T00:17:51;7.50;6.50;4.50
69349;PMS5003;64554;43.452;4.934;2023-08-01T00:20:18;10.40;7.40;4.00
69349;PMS5003;64554;43.452;4.934;2023-08-01T00:22:44;7.00;6.00;3.20
69349;PMS5003;64554;43.452;4.934;2023-08-01T00:25:11;6.50;6.50;3.00
69349;PMS5003;64554;43.452;4.934;2023-08-01T00:27:38;7.20;7.20;5.00
69349;PMS5003;64554;43.452;4.934;2023-08-01T00:30:06;11.00;10.00;4.00
69349;PMS5003;64554;43.452;4.934;2023-08-01T00:32:33;8.60;7.00;4.40
69349;PMS5003;64554;43.452;4.934;2023-08-01T00:35:00;9.00;7.60;4.20
69349;PMS5003;64554;43.452;4.934;2023-08-01T00:37:26;7.00;7.00;4.00
69349;PMS5003;64554;43.452;4.934;2023-08-01T00:39:53;6.00;6.00;4.00
69349;PMS5003;64554;43.452;4.934;2023-08-01T00:42:20;4.50;4.50;2.50
69349;PMS5003;64554;43.452;4.934;2023-08-01T00:44:46;5.00;5.00;3.00
69349;PMS5003;64554;43.452;4.934;2023-08-01T00:47:15;7.00;7.00;4.00
69349;PMS5003;64554;43.452;4.934;2023-08-01T00:49:42;7.00;7.00;4.60
69349;PMS5003;64554;43.452;4.934;2023-08-01T00:52:09;5.80;5.80;2.80
69349;PMS5003;64554;43.452;4.934;2023-08-01T00:54:36;7.80;7.00;3.00
69349;PMS5003;64554;43.452;4.934;2023-08-01T00:57:03;7.00;6.00;3.50
69349;PMS5003;64554;43.452;4.934;2023-08-01T00:59:30;6.20;6.20;4.00
69349;PMS5003;64554;43.452;4.934;2023-08-01T01:01:57;6.80;6.80;4.00
69349;PMS5003;64554;43.452;4.934;2023-08-01T01:04:25;8.50;7.25;3.50
69349;PMS5003;64554;43.452;4.934;2023-08-01T01:06:55;5.00;5.00;3.00
69349;PMS5003;64554;43.452;4.934;2023-08-01T01:09:24;5.50;5.50;3.00
69349;PMS5003;64554;43.452;4.934;2023-08-01T01:11:51;5.00;5.00;3.00
69349;PMS5003;64554;43.452;4.934;2023-08-01T01:14:18;7.75;6.75;3.00
69349;PMS5003;64554;43.452;4.934;2023-08-01T01:16:45;6.20;6.20;3.80
69349;PMS5003;64554;43.452;4.934;2023-08-01T01:19:12;8.00;8.00;3.75
69349;PMS5003;64554;43.452;4.934;2023-08-01T01:21:39;8.75;7.75;4.50
69349;PMS5003;64554;43.452;4.934;2023-08-01T01:24:07;6.00;6.00;3.00
69349;PMS5003;64554;43.452;4.934;2023-08-01T01:26:34;6.00;5.00;3.00
69349;PMS5003;64554;43.452;4.934;2023-08-01T01:29:02;6.60;6.00;3.20
69349;PMS5003;64554;43.452;4.934;2023-08-01T01:31:30;7.80;6.00;2.80
69349;PMS5003;64554;43.452;4.934;2023-08-01T01:33:57;7.00;7.00;2.75
69349;PMS5003;64554;43.452;4.934;2023-08-01T01:36:24;7.60;7.60;3.60
69349;PMS5003;64554;43.452;4.934;2023-08-01T01:38:51;8.00;8.00;4.40
69349;PMS5003;64554;43.452;4.934;2023-08-01T01:41:17;10.00;8.00;5.00
69349;PMS5003;64554;43.452;4.934;2023-08-01T01:43:44;5.25;5.25;3.00
69349;PMS5003;64554;43.452;4.934;2023-08-01T01:46:11;9.00;7.80;4.80
69349;PMS5003;64554;43.452;4.934;2023-08-01T01:48:38;11.50;9.00;4.00
69349;PMS5003;64554;43.452;4.934;2023-08-01T01:51:05;8.00;7.00;4.00
69349;PMS5003;64554;43.452;4.934;2023-08-01T01:53:31;8.00;7.00;4.00
69349;PMS5003;64554;43.452;4.934;2023-08-01T01:55:58;9.00;7.00;4.00
69349;PMS5003;64554;43.452;4.934;2023-08-01T01:58:25;7.20;7.00;4.20
69349;PMS5003;64554;43.452;4.934;2023-08-01T02:00:52;7.00;7.00;4.25
69349;PMS5003;64554;43.452;4.934;2023-08-01T02:03:19;6.80;6.20;3.20
69349;PMS5003;64554;43.452;4.934;2023-08-01T02:05:46;5.75;5.75;3.50
69349;PMS5003;64554;43.452;4.934;2023-08-01T02:08:12;10.00;10.00;5.40
69349;PMS5003;64554;43.452;4.934;2023-08-01T02:10:39;8.75;8.75;5.00
69349;PMS5003;64554;43.452;4.934;2023-08-01T02:13:06;8.00;6.25;3.25
69349;PMS5003;64554;43.452;4.934;2023-08-01T02:15:34;9.40;9.40;4.40
69349;PMS5003;64554;43.452;4.934;2023-08-01T02:18:01;9.00;7.75;4.25
69349;PMS5003;64554;43.452;4.934;2023-08-01T02:20:29;6.40;6.40;3.40
69349;PMS5003;64554;43.452;4.934;2023-08-01T02:22:56;6.75;6.75;4.50
69349;PMS5003;64554;43.452;4.934;2023-08-01T02:25:22;11.50;9.50;5.00
69349;PMS5003;64554;43.452;4.934;2023-08-01T02:27:49;7.40;6.40;3.40
69349;PMS5003;64554;43.452;4.934;2023-08-01T02:30:16;9.33;9.33;5.33
69349;PMS5003;64554;43.452;4.934;2023-08-01T02:32:43;11.50;10.50;5.00
69349;PMS5003;64554;43.452;4.934;2023-08-01T02:35:11;9.00;8.00;4.20
69349;PMS5003;64554;43.452;4.934;2023-08-01T02:37:37;9.20;8.00;4.60
69349;PMS5003;64554;43.452;4.934;2023-08-01T02:40:04;7.50;6.50;4.25
69349;PMS5003;64554;43.452;4.934;2023-08-01T02:42:33;7.60;7.60;4.00
69349;PMS5003;64554;43.452;4.934;2023-08-01T02:45:00;8.50;7.50;4.00
69349;PMS5003;64554;43.452;4.934;2023-08-01T02:47:27;10.00;9.00;4.25
69349;PMS5003;64554;43.452;4.934;2023-08-01T02:49:54;8.80;8.80;5.00
69349;PMS5003;64554;43.452;4.934;2023-08-01T02:52:21;9.25;6.00;3.75
69349;PMS5003;64554;43.452;4.934;2023-08-01T02:54:47;7.25;4.75;3.25
69349;PMS5003;64554;43.452;4.934;2023-08-01T02:57:14;9.00;9.00;5.00
69349;PMS5003;64554;43.452;4.934;2023-08-01T02:59:41;9.20;8.20;4.80
69349;PMS5003;64554;43.452;4.934;2023-08-01T03:02:07;10.40;10.00;5.00
69349;PMS5003;64554;43.452;4.934;2023-08-01T03:04:34;8.00;8.00;4.25
69349;PMS5003;64554;43.452;4.934;2023-08-01T03:07:12;11.00;9.00;5.00
69349;PMS5003;64554;43.452;4.934;2023-08-01T03:09:39;7.75;6.50;3.00
69349;PMS5003;64554;43.452;4.934;2023-08-01T03:12:06;7.80;6.00;3.00
69349;PMS5003;64554;43.452;4.934;2023-08-01T03:14:33;13.00;13.00;7.00
69349;PMS5003;64554;43.452;4.934;2023-08-01T03:17:00;7.20;7.20;4.20
69349;PMS5003;64554;43.452;4.934;2023-08-01T03:19:26;9.00;9.00;5.00
69349;PMS5003;64554;43.452;4.934;2023-08-01T03:21:53;9.00;9.00;5.40
69349;PMS5003;64554;43.452;4.934;2023-08-01T03:24:20;11.80;11.80;5.00
69349;PMS5003;64554;43.452;4.934;2023-08-01T03:26:46;9.00;7.80;3.00
69349;PMS5003;64554;43.452;4.934;2023-08-01T03:29:13;8.60;8.60;4.60
69349;PMS5003;64554;43.452;4.934;2023-08-01T03:31:39;10.25;10.25;5.00
69349;PMS5003;64554;43.452;4.934;2023-08-01T03:34:06;10.00;10.00;5.20
69349;PMS5003;64554;43.452;4.934;2023-08-01T03:36:35;8.75;8.75;4.00
69349;PMS5003;64554;43.452;4.934;2023-08-01T03:39:02;8.00;7.25;3.25
69349;PMS5003;64554;43.452;4.934;2023-08-01T03:41:31;14.00;14.00;6.00
69349;PMS5003;64554;43.452;4.934;2023-08-01T03:43:58;8.00;8.00;4.40
69349;PMS5003;64554;43.452;4.934;2023-08-01T03:46:24;7.00;7.00;5.00
69349;PMS5003;64554;43.452;4.934;2023-08-01T03:48:51;8.00;8.00;4.00
69349;PMS5003;64554;43.452;4.934;2023-08-01T03:51:18;11.00;9.50;5.00
69349;PMS5003;64554;43.452;4.934;2023-08-01T03:53:46;11.00;10.50;4.75
69349;PMS5003;64554;43.452;4.934;2023-08-01T03:56:28;10.00;8.25;4.00
69349;PMS5003;64554;43.452;4.934;2023-08-01T03:58:55;11.40;9.40;5.60
69349;PMS5003;64554;43.452;4.934;2023-08-01T04:01:22;10.00;9.00;4.40
69349;PMS5003;64554;43.452;4.934;2023-08-01T04:03:49;11.25;10.25;4.50
69349;PMS5003;64554;43.452;4.934;2023-08-01T04:06:15;13.00;10.00;5.00
69349;PMS5003;64554;43.452;4.934;2023-08-01T04:08:42;9.20;8.20;3.80
69349;PMS5003;64554;43.452;4.934;2023-08-01T04:11:09;5.40;5.40;3.40
69349;PMS5003;64554;43.452;4.934;2023-08-01T04:13:37;8.60;8.40;4.60
69349;PMS5003;64554;43.452;4.934;2023-08-01T04:16:04;9.40;9.40;4.40
69349;PMS5003;64554;43.452;4.934;2023-08-01T04:18:31;10.00;10.00;5.00
69349;PMS5003;64554;43.452;4.934;2023-08-01T04:20:58;12.75;12.75;5.75
69349;PMS5003;64554;43.452;4.934;2023-08-01T04:23:25;7.00;7.00;3.40
69349;PMS5003;64554;43.452;4.934;2023-08-01T04:25:51;11.00;9.00;4.50
69349;PMS5003;64554;43.452;4.934;2023-08-01T04:28:18;9.50;9.50;4.50
69349;PMS5003;64554;43.452;4.934;2023-08-01T04:30:48;8.00;7.60;5.00
69349;PMS5003;64554;43.452;4.934;2023-08-01T04:33:15;10.00;10.00;5.50
69349;PMS5003;64554;43.452;4.934;2023-08-01T04:35:42;7.00;7.00;5.00
69349;PMS5003;64554;43.452;4.934;2023-08-01T04:38:08;7.00;7.00;4.00
69349;PMS5003;64554;43.452;4.934;2023-08-01T04:40:38;13.00;10.60;5.60
69349;PMS5003;64554;43.452;4.934;2023-08-01T04:43:05;10.40;10.40;4.40
69349;PMS5003;64554;43.452;4.934;2023-08-01T04:45:32;8.20;7.20;3.60
69349;PMS5003;64554;43.452;4.934;2023-08-01T04:47:58;12.40;12.40;5.00
69349;PMS5003;64554;43.452;4.934;2023-08-01T04:50:25;9.00;7.00;4.00
69349;PMS5003;64554;43.452;4.934;2023-08-01T04:52:52;8.00;7.00;3.75
69349;PMS5003;64554;43.452;4.934;2023-08-01T04:55:18;8.60;8.60;3.40
69349;PMS5003;64554;43.452;4.934;2023-08-01T04:57:45;8.00;7.00;5.00
69349;PMS5003;64554;43.452;4.934;2023-08-01T05:00:12;5.60;5.60;4.00
69349;PMS5003;64554;43.452;4.934;2023-08-01T05:02:39;10.50;8.50;5.50
69349;PMS5003;64554;43.452;4.934;2023-08-01T05:05:05;11.40;8.40;5.40
69349;PMS5003;64554;43.452;4.934;2023-08-01T05:07:32;8.25;8.25;5.00
69349;PMS5003;64554;43.452;4.934;2023-08-01T05:09:59;9.50;9.50;5.50
69349;PMS5003;64554;43.452;4.934;2023-08-01T05:12:26;12.00;11.50;6.00
69349;PMS5003;64554;43.452;4.934;2023-08-01T05:14:53;13.25;12.50;4.50
69349;PMS5003;64554;43.452;4.934;2023-08-01T05:17:20;14.00;14.00;6.00
69349;PMS5003;64554;43.452;4.934;2023-08-01T05:19:47;9.33;8.33;4.00
69349;PMS5003;64554;43.452;4.934;2023-08-01T05:22:14;12.00;9.25;6.25
69349;PMS5003;64554;43.452;4.934;2023-08-01T05:24:41;15.33;9.67;6.00
69349;PMS5003;64554;43.452;4.934;2023-08-01T05:27:07;12.25;11.25;4.25
69349;PMS5003;64554;43.452;4.934;2023-08-01T05:29:34;14.40;13.00;4.40
69349;PMS5003;64554;43.452;4.934;2023-08-01T05:32:01;11.40;8.00;5.40
69349;PMS5003;64554;43.452;4.934;2023-08-01T05:34:28;12.00;11.80;7.00
69349;PMS5003;64554;43.452;4.934;2023-08-01T05:36:55;8.00;8.00;6.00
69349;PMS5003;64554;43.452;4.934;2023-08-01T05:39:22;12.60;9.60;5.00
69349;PMS5003;64554;43.452;4.934;2023-08-01T05:41:48;11.20;10.60;5.40
69349;PMS5003;64554;43.452;4.934;2023-08-01T05:44:16;10.50;7.50;4.50
69349;PMS5003;64554;43.452;4.934;2023-08-01T05:46:43;8.00;6.50;4.50
69349;PMS5003;64554;43.452;4.934;2023-08-01T05:49:10;7.80;7.80;4.80
69349;PMS5003;64554;43.452;4.934;2023-08-01T05:51:36;6.60;6.60;5.00
69349;PMS5003;64554;43.452;4.934;2023-08-01T05:54:03;7.40;7.00;5.00
69349;PMS5003;64554;43.452;4.934;2023-08-01T05:56:30;10.00;8.40;4.40
69349;PMS5003;64554;43.452;4.934;2023-08-01T05:58:57;5.00;5.00;3.00
69349;PMS5003;64554;43.452;4.934;2023-08-01T06:01:24;7.00;7.00;5.00
69349;PMS5003;64554;43.452;4.934;2023-08-01T06:03:51;8.00;8.00;4.00
69349;PMS5003;64554;43.452;4.934;2023-08-01T06:06:18;9.40;8.20;5.80
69349;PMS5003;64554;43.452;4.934;2023-08-01T06:08:45;10.40;8.40;4.40
69349;PMS5003;64554;43.452;4.934;2023-08-01T06:11:12;10.60;9.00;4.00
69349;PMS5003;64554;43.452;4.934;2023-08-01T06:13:38;6.80;6.80;3.40
69349;PMS5003;64554;43.452;4.934;2023-08-01T06:16:05;7.25;6.00;4.25
69349;PMS5003;64554;43.452;4.934;2023-08-01T06:18:32;3.40;3.40;3.00
69349;PMS5003;64554;43.452;4.934;2023-08-01T06:20:59;8.50;6.00;3.75
69349;PMS5003;64554;43.452;4.934;2023-08-01T06:23:25;5.20;4.00;3.00
69349;PMS5003;64554;43.452;4.934;2023-08-01T06:25:52;5.80;4.80;3.80
69349;PMS5003;64554;43.452;4.934;2023-08-01T06:28:19;6.40;6.40;4.00
69349;PMS5003;64554;43.452;4.934;2023-08-01T06:30:46;6.00;4.40;2.80
69349;PMS5003;64554;43.452;4.934;2023-08-01T06:33:13;4.50;4.50;3.00
69349;PMS5003;64554;43.452;4.934;2023-08-01T06:35:39;4.60;4.00;1.20
69349;PMS5003;64554;43.452;4.934;2023-08-01T06:38:06;3.40;3.20;2.20
69349;PMS5003;64554;43.452;4.934;2023-08-01T06:40:33;9.00;6.00;3.00
69349;PMS5003;64554;43.452;4.934;2023-08-01T06:42:59;5.50;5.50;3.50
69349;PMS5003;64554;43.452;4.934;2023-08-01T06:45:26;6.00;6.00;2.75
69349;PMS5003;64554;43.452;4.934;2023-08-01T06:47:53;6.00;4.00;2.00
69349;PMS5003;64554;43.452;4.934;2023-08-01T06:50:19;5.60;4.20;2.00
69349;PMS5003;64554;43.452;4.934;2023-08-01T06:52:46;4.00;2.00;1.00
69349;PMS5003;64554;43.452;4.934;2023-08-01T06:55:13;5.40;3.80;2.40
69349;PMS5003;64554;43.452;4.934;2023-08-01T06:57:39;14.00;10.00;4.25
69349;PMS5003;64554;43.452;4.934;2023-08-01T07:00:06;5.20;5.20;3.00
69349;PMS5003;64554;43.452;4.934;2023-08-01T07:02:33;4.60;4.00;3.00
69349;PMS5003;64554;43.452;4.934;2023-08-01T07:04:59;3.20;3.20;2.20
69349;PMS5003;64554;43.452;4.934;2023-08-01T07:07:26;4.50;4.00;4.00
69349;PMS5003;64554;43.452;4.934;2023-08-01T07:09:52;3.80;3.80;2.00
69349;PMS5003;64554;43.452;4.934;2023-08-01T07:12:19;7.40;6.00;3.00
69349;PMS5003;64554;43.452;4.934;2023-08-01T07:14:46;6.00;4.00;1.50
69349;PMS5003;64554;43.452;4.934;2023-08-01T07:17:12;7.00;5.00;4.00
69349;PMS5003;64554;43.452;4.934;2023-08-01T07:19:39;4.80;4.20;2.80
69349;PMS5003;64554;43.452;4.934;2023-08-01T07:22:05;4.60;4.60;3.00
69349;PMS5003;64554;43.452;4.934;2023-08-01T07:24:32;4.50;2.50;2.00
69349;PMS5003;64554;43.452;4.934;2023-08-01T07:26:58;4.00;3.80;2.80
69349;PMS5003;64554;43.452;4.934;2023-08-01T07:29:25;4.80;3.20;2.00
69349;PMS5003;64554;43.452;4.934;2023-08-01T07:31:52;9.20;7.00;3.60
69349;PMS5003;64554;43.452;4.934;2023-08-01T07:34:19;6.00;4.00;2.60
69349;PMS5003;64554;43.452;4.934;2023-08-01T07:36:47;5.20;5.00;3.00
69349;PMS5003;64554;43.452;4.934;2023-08-01T07:39:15;3.60;3.60;1.60
69349;PMS5003;64554;43.452;4.934;2023-08-01T07:41:42;6.00;4.00;2.00
69349;PMS5003;64554;43.452;4.934;2023-08-01T07:44:08;3.60;3.20;1.40
69349;PMS5003;64554;43.452;4.934;2023-08-01T07:46:35;6.00;5.00;3.00
69349;PMS5003;64554;43.452;4.934;2023-08-01T07:49:01;7.40;6.00;2.00
69349;PMS5003;64554;43.452;4.934;2023-08-01T07:51:28;4.00;4.00;3.00
69349;PMS5003;64554;43.452;4.934;2023-08-01T07:53:56;9.00;4.75;2.00
69349;PMS5003;64554;43.452;4.934;2023-08-01T07:56:23;4.75;3.00;2.00
69349;PMS5003;64554;43.452;4.934;2023-08-01T07:58:49;4.00;3.25;1.25
69349;PMS5003;64554;43.452;4.934;2023-08-01T08:01:16;4.00;4.00;1.40
69349;PMS5003;64554;43.452;4.934;2023-08-01T08:03:43;4.40;4.00;3.00
69349;PMS5003;64554;43.452;4.934;2023-08-01T08:06:10;4.40;4.40;3.00
69349;PMS5003;64554;43.452;4.934;2023-08-01T08:08:36;4.60;4.60;2.60
69349;PMS5003;64554;43.452;4.934;2023-08-01T08:11:03;5.00;5.00;4.00
69349;PMS5003;64554;43.452;4.934;2023-08-01T08:13:29;6.00;6.00;3.75
69349;PMS5003;64554;43.452;4.934;2023-08-01T08:15:56;5.80;5.80;3.80
69349;PMS5003;64554;43.452;4.934;2023-08-01T08:18:23;7.00;7.00;2.40
69349;PMS5003;64554;43.452;4.934;2023-08-01T08:20:50;8.00;5.40;3.00
69349;PMS5003;64554;43.452;4.934;2023-08-01T08:23:17;4.25;4.25;3.00
69349;PMS5003;64554;43.452;4.934;2023-08-01T08:25:45;4.50;4.50;1.50
69349;PMS5003;64554;43.452;4.934;2023-08-01T08:28:13;4.80;4.80;2.80
69349;PMS5003;64554;43.452;4.934;2023-08-01T08:30:40;6.00;4.00;2.00
69349;PMS5003;64554;43.452;4.934;2023-08-01T08:33:07;6.00;5.60;3.40
69349;PMS5003;64554;43.452;4.934;2023-08-01T08:35:36;6.40;4.80;2.80
69349;PMS5003;64554;43.452;4.934;2023-08-01T08:38:03;5.00;5.00;2.80
69349;PMS5003;64554;43.452;4.934;2023-08-01T08:40:33;4.00;4.00;2.50
69349;PMS5003;64554;43.452;4.934;2023-08-01T08:43:01;4.00;4.00;2.80
69349;PMS5003;64554;43.452;4.934;2023-08-01T08:45:29;5.25;5.00;2.50
69349;PMS5003;64554;43.452;4.934;2023-08-01T08:48:00;5.20;4.00;2.00
69349;PMS5003;64554;43.452;4.934;2023-08-01T08:50:27;4.00;4.00;2.00
69349;PMS5003;64554;43.452;4.934;2023-08-01T08:52:55;9.00;7.80;3.60
69349;PMS5003;64554;43.452;4.934;2023-08-01T08:55:22;6.00;5.00;3.00
69349;PMS5003;64554;43.452;4.934;2023-08-01T08:57:52;5.50;5.50;3.50
69349;PMS5003;64554;43.452;4.934;2023-08-01T09:00:19;5.20;5.20;3.00
69349;PMS5003;64554;43.452;4.934;2023-08-01T09:02:47;6.00;4.60;2.40
69349;PMS5003;64554;43.452;4.934;2023-08-01T09:05:14;5.60;5.00;2.80
69349;PMS5003;64554;43.452;4.934;2023-08-01T09:07:41;7.80;6.60;4.00
69349;PMS5003;64554;43.452;4.934;2023-08-01T09:10:08;7.60;7.20;3.40
69349;PMS5003;64554;43.452;4.934;2023-08-01T09:12:35;5.00;5.00;3.00
69349;PMS5003;64554;43.452;4.934;2023-08-01T09:15:01;11.00;8.40;4.40
69349;PMS5003;64554;43.452;4.934;2023-08-01T09:17:28;5.60;5.60;3.00
69349;PMS5003;64554;43.452;4.934;2023-08-01T09:19:55;5.75;5.75;4.00
69349;PMS5003;64554;43.452;4.934;2023-08-01T09:22:23;4.80;4.80;3.00
69349;PMS5003;64554;43.452;4.934;2023-08-01T09:24:50;5.40;4.40;2.40
69349;PMS5003;64554;43.452;4.934;2023-08-01T09:27:17;5.25;4.75;2.00
69349;PMS5003;64554;43.452;4.934;2023-08-01T09:29:44;5.00;4.00;2.25
69349;PMS5003;64554;43.452;4.934;2023-08-01T09:32:13;6.00;5.00;3.00
69349;PMS5003;64554;43.452;4.934;2023-08-01T09:34:41;8.60;8.60;5.60
69349;PMS5003;64554;43.452;4.934;2023-08-01T09:37:08;8.00;7.00;3.00
69349;PMS5003;64554;43.452;4.934;2023-08-01T09:39:34;4.00;4.00;2.00
69349;PMS5003;64554;43.452;4.934;2023-08-01T09:42:01;10.40;7.80;4.20
69349;PMS5003;64554;43.452;4.934;2023-08-01T09:44:29;10.60;8.60;4.00
69349;PMS5003;64554;43.452;4.934;2023-08-01T09:47:05;7.80;6.20;3.80
69349;PMS5003;64554;43.452;4.934;2023-08-01T09:49:34;8.00;8.00;5.00
69349;PMS5003;64554;43.452;4.934;2023-08-01T09:52:03;9.33;7.33;4.00
69349;PMS5003;64554;43.452;4.934;2023-08-01T09:54:30;7.00;7.00;4.25
69349;PMS5003;64554;43.452;4.934;2023-08-01T09:56:57;6.00;6.00;4.00
69349;PMS5003;64554;43.452;4.934;2023-08-01T09:59:25;8.60;8.60;4.00
69349;PMS5003;64554;43.452;4.934;2023-08-01T10:01:52;9.50;9.25;2.75
69349;PMS5003;64554;43.452;4.934;2023-08-01T10:04:40;5.50;4.75;2.75
69349;PMS5003;64554;43.452;4.934;2023-08-01T10:07:08;9.00;7.75;5.00
69349;PMS5003;64554;43.452;4.934;2023-08-01T10:09:35;6.60;6.60;4.00
69349;PMS5003;64554;43.452;4.934;2023-08-01T10:12:02;6.00;6.00;4.00
69349;PMS5003;64554;43.452;4.934;2023-08-01T10:14:31;11.00;9.00;3.00
69349;PMS5003;64554;43.452;4.934;2023-08-01T10:16:58;4.00;4.00;2.80
69349;PMS5003;64554;43.452;4.934;2023-08-01T10:19:25;5.00;5.00;1.40
69349;PMS5003;64554;43.452;4.934;2023-08-01T10:21:53;5.00;5.00;3.00
69349;PMS5003;64554;43.452;4.934;2023-08-01T10:24:21;10.00;9.00;3.00
69349;PMS5003;64554;43.452;4.934;2023-08-01T10:26:49;7.50;7.50;3.50
69349;PMS5003;64554;43.452;4.934;2023-08-01T10:29:16;4.75;4.75;3.75
69349;PMS5003;64554;43.452;4.934;2023-08-01T10:31:53;6.00;4.00;2.50
69349;PMS5003;64554;43.452;4.934;2023-08-01T10:34:20;7.25;6.00;3.25
69349;PMS5003;64554;43.452;4.934;2023-08-01T10:36:53;7.00;7.00;3.50
69349;PMS5003;64554;43.452;4.934;2023-08-01T10:39:21;5.80;5.80;3.40
69349;PMS5003;64554;43.452;4.934;2023-08-01T10:41:56;7.75;5.75;2.75
69349;PMS5003;64554;43.452;4.934;2023-08-01T10:44:23;6.00;4.60;2.40
69349;PMS5003;64554;43.452;4.934;2023-08-01T10:46:57;7.00;7.00;5.00
69349;PMS5003;64554;43.452;4.934;2023-08-01T10:52:00;7.25;7.25;4.00
69349;PMS5003;64554;43.452;4.934;2023-08-01T10:54:27;6.00;6.00;3.40
69349;PMS5003;64554;43.452;4.934;2023-08-01T10:56:55;6.60;6.60;3.60
69349;PMS5003;64554;43.452;4.934;2023-08-01T10:59:24;6.60;6.60;4.60
69349;PMS5003;64554;43.452;4.934;2023-08-01T11:01:57;9.00;5.20;3.00
69349;PMS5003;64554;43.452;4.934;2023-08-01T11:04:24;6.40;6.00;3.20
69349;PMS5003;64554;43.452;4.934;2023-08-01T11:06:52;4.75;4.50;2.50
69349;PMS5003;64554;43.452;4.934;2023-08-01T11:09:22;6.00;6.00;4.00
69349;PMS5003;64554;43.452;4.934;2023-08-01T11:11:51;7.00;6.00;3.00
69349;PMS5003;64554;43.452;4.934;2023-08-01T11:14:19;5.00;5.00;3.00
69349;PMS5003;64554;43.452;4.934;2023-08-01T11:16:46;4.60;4.60;3.00
69349;PMS5003;64554;43.452;4.934;2023-08-01T11:19:29;4.00;4.00;2.00
69349;PMS5003;64554;43.452;4.934;2023-08-01T11:21:56;4.80;4.80;3.80
69349;PMS5003;64554;43.452;4.934;2023-08-01T11:24:24;6.50;6.50;2.50
69349;PMS5003;64554;43.452;4.934;2023-08-01T11:26:51;6.00;4.00;2.00
69349;PMS5003;64554;43.452;4.934;2023-08-01T11:29:19;4.75;4.00;2.00
69349;PMS5003;64554;43.452;4.934;2023-08-01T11:31:56;5.00;5.00;2.80
69349;PMS5003;64554;43.452;4.934;2023-08-01T11:34:23;6.00;6.00;2.00
69349;PMS5003;64554;43.452;4.934;2023-08-01T11:36:50;5.40;5.40;2.40
69349;PMS5003;64554;43.452;4.934;2023-08-01T11:39:17;4.00;4.00;2.00
69349;PMS5003;64554;43.452;4.934;2023-08-01T11:41:44;6.00;5.00;3.00
69349;PMS5003;64554;43.452;4.934;2023-08-01T11:44:11;4.25;4.00;2.25
69349;PMS5003;64554;43.452;4.934;2023-08-01T11:46:38;7.25;7.00;4.00
69349;PMS5003;64554;43.452;4.934;2023-08-01T11:49:05;4.00;4.00;2.00
69349;PMS5003;64554;43.452;4.934;2023-08-01T11:51:38;5.40;4.40;3.40
69349;PMS5003;64554;43.452;4.934;2023-08-01T11:54:05;7.00;6.00;4.00
69349;PMS5003;64554;43.452;4.934;2023-08-01T11:56:32;7.20;6.00;3.20
69349;PMS5003;64554;43.452;4.934;2023-08-01T11:58:59;5.00;4.00;3.00
69349;PMS5003;64554;43.452;4.934;2023-08-01T12:01:26;7.00;7.00;4.00
69349;PMS5003;64554;43.452;4.934;2023-08-01T12:03:53;2.60;2.60;1.80
69349;PMS5003;64554;43.452;4.934;2023-08-01T12:06:22;5.00;4.00;2.00
69349;PMS5003;64554;43.452;4.934;2023-08-01T12:08:50;3.50;3.50;2.50
69349;PMS5003;64554;43.452;4.934;2023-08-01T12:11:27;6.60;5.60;3.60
69349;PMS5003;64554;43.452;4.934;2023-08-01T12:14:06;6.00;6.00;3.80
69349;PMS5003;64554;43.452;4.934;2023-08-01T12:16:40;4.00;2.00;1.00
69349;PMS5003;64554;43.452;4.934;2023-08-01T12:19:09;4.00;4.00;2.00
69349;PMS5003;64554;43.452;4.934;2023-08-01T12:21:36;1.00;1.00;1.00
69349;PMS5003;64554;43.452;4.934;2023-08-01T12:24:03;2.00;2.00;1.00
69349;PMS5003;64554;43.452;4.934;2023-08-01T12:26:30;4.00;2.00;0.00
69349;PMS5003;64554;43.452;4.934;2023-08-01T12:28:56;3.00;3.00;0.00
69349;PMS5003;64554;43.452;4.934;2023-08-01T12:31:23;3.20;3.20;1.60
69349;PMS5003;64554;43.452;4.934;2023-08-01T12:33:50;3.00;2.00;1.00
69349;PMS5003;64554;43.452;4.934;2023-08-01T12:36:16;2.00;2.00;1.00
69349;PMS5003;64554;43.452;4.934;2023-08-01T12:38:44;3.00;3.00;1.00
69349;PMS5003;64554;43.452;4.934;2023-08-01T12:41:11;4.00;4.00;1.25
69349;PMS5003;64554;43.452;4.934;2023-08-01T12:43:37;3.80;2.80;1.00
69349;PMS5003;64554;43.452;4.934;2023-08-01T12:46:04;3.00;2.00;0.00
69349;PMS5003;64554;43.452;4.934;2023-08-01T12:48:31;3.00;2.00;1.00
69349;PMS5003;64554;43.452;4.934;2023-08-01T12:50:57;3.00;3.00;2.00
69349;PMS5003;64554;43.452;4.934;2023-08-01T12:53:24;3.20;2.60;1.00
69349;PMS5003;64554;43.452;4.934;2023-08-01T12:55:51;5.00;4.00;2.00
69349;PMS5003;64554;43.452;4.934;2023-08-01T12:58:18;2.00;2.00;1.25
69349;PMS5003;64554;43.452;4.934;2023-08-01T13:00:44;3.00;1.40;1.00
69349;PMS5003;64554;43.452;4.934;2023-08-01T13:03:11;1.20;1.20;0.20
69349;PMS5003;64554;43.452;4.934;2023-08-01T13:05:39;1.00;1.00;0.00
69349;PMS5003;64554;43.452;4.934;2023-08-01T13:08:06;1.60;0.00;0.00
69349;PMS5003;64554;43.452;4.934;2023-08-01T13:10:34;0.00;0.00;0.00
69349;PMS5003;64554;43.452;4.934;2023-08-01T13:13:00;0.25;0.25;0.00
69349;PMS5003;64554;43.452;4.934;2023-08-01T13:15:27;1.00;0.00;0.00
69349;PMS5003;64554;43.452;4.934;2023-08-01T13:17:54;2.00;0.00;0.00
69349;PMS5003;64554;43.452;4.934;2023-08-01T13:20:21;0.00;0.00;0.00
69349;PMS5003;64554;43.452;4.934;2023-08-01T13:22:49;0.00;0.00;0.00
69349;PMS5003;64554;43.452;4.934;2023-08-01T13:25:17;1.00;1.00;0.60
69349;PMS5003;64554;43.452;4.934;2023-08-01T13:27:45;1.00;1.00;0.00
69349;PMS5003;64554;43.452;4.934;2023-08-01T13:30:12;0.80;0.00;0.00
69349;PMS5003;64554;43.452;4.934;2023-08-01T13:32:44;0.00;0.00;0.00
69349;PMS5003;64554;43.452;4.934;2023-08-01T13:35:12;0.00;0.00;0.00
69349;PMS5003;64554;43.452;4.934;2023-08-01T13:37:39;0.00;0.00;0.00
69349;PMS5003;64554;43.452;4.934;2023-08-01T13:40:06;0.00;0.00;0.00
69349;PMS5003;64554;43.452;4.934;2023-08-01T13:42:33;0.00;0.00;0.00
69349;PMS5003;64554;43.452;4.934;2023-08-01T13:44:59;0.00;0.00;0.00
69349;PMS5003;64554;43.452;4.934;2023-08-01T13:47:26;0.80;0.80;0.00
69349;PMS5003;64554;43.452;4.934;2023-08-01T13:49:53;0.50;0.50;0.00
69349;PMS5003;64554;43.452;4.934;2023-08-01T13:52:19;0.00;0.00;0.00
69349;PMS5003;64554;43.452;4.934;2023-08-01T13:54:46;0.00;0.00;0.00
69349;PMS5003;64554;43.452;4.934;2023-08-01T13:57:13;0.40;0.00;0.00
69349;PMS5003;64554;43.452;4.934;2023-08-01T13:59:40;0.00;0.00;0.00
69349;PMS5003;64554;43.452;4.934;2023-08-01T14:02:07;0.00;0.00;0.00
69349;PMS5003;64554;43.452;4.934;2023-08-01T14:04:35;0.00;0.00;0.00
69349;PMS5003;64554;43.452;4.934;2023-08-01T14:07:02;1.00;1.00;0.00
69349;PMS5003;64554;43.452;4.934;2023-08-01T14:09:29;0.00;0.00;0.00
69349;PMS5003;64554;43.452;4.934;2023-08-01T14:11:59;0.00;0.00;0.00
69349;PMS5003;64554;43.452;4.934;2023-08-01T14:14:27;0.50;0.00;0.00
69349;PMS5003;64554;43.452;4.934;2023-08-01T14:16:53;1.00;1.00;0.00
69349;PMS5003;64554;43.452;4.934;2023-08-01T14:19:21;2.00;1.00;0.00
69349;PMS5003;64554;43.452;4.934;2023-08-01T14:21:47;0.25;0.25;0.25